sensor_id;sensor_type;location;lat;lon;timestamp;P1;durP1;ratioP1;P2;durP2;ratioP2
17079;SDS011;8655;57.106;-2.088;2022-08-11T00:01:48;1.52;;;1.23;;
17079;SDS011;8655;57.106;-2.088;2022-08-11T00:04:16;1.30;;;1.20;;
17079;SDS011;8655;57.106;-2.088;2022-08-11T00:06:44;1.20;;;1.10;;
17079;SDS011;8655;57.106;-2.088;2022-08-11T00:09:20;1.17;;;1.08;;
17079;SDS011;8655;57.106;-2.088;2022-08-11T00:11:55;1.45;;;1.23;;
17079;SDS011;8655;57.106;-2.088;2022-08-11T00:14:28;1.67;;;1.45;;
17079;SDS011;8655;57.106;-2.088;2022-08-11T00:17:05;1.40;;;1.30;;
17079;SDS011;8655;57.106;-2.088;2022-08-11T00:19:36;2.35;;;1.60;;
17079;SDS011;8655;57.106;-2.088;2022-08-11T00:22:05;1.50;;;1.30;;
17079;SDS011;8655;57.106;-2.088;2022-08-11T00:24:33;1.63;;;1.40;;
17079;SDS011;8655;57.106;-2.088;2022-08-11T00:27:01;1.20;;;1.10;;
17079;SDS011;8655;57.106;-2.088;2022-08-11T00:29:28;1.48;;;1.38;;
17079;SDS011;8655;57.106;-2.088;2022-08-11T00:31:55;1.20;;;1.10;;
17079;SDS011;8655;57.106;-2.088;2022-08-11T00:34:26;1.48;;;1.27;;
17079;SDS011;8655;57.106;-2.088;2022-08-11T00:36:54;1.58;;;1.20;;
17079;SDS011;8655;57.106;-2.088;2022-08-11T00:39:25;0.95;;;0.95;;
17079;SDS011;8655;57.106;-2.088;2022-08-11T00:48:28;1.70;;;1.40;;
17079;SDS011;8655;57.106;-2.088;2022-08-11T00:53:27;1.27;;;1.17;;
17079;SDS011;8655;57.106;-2.088;2022-08-11T01:01:52;1.40;;;1.30;;
17079;SDS011;8655;57.106;-2.088;2022-08-11T01:10:13;1.48;;;1.25;;
17079;SDS011;8655;57.106;-2.088;2022-08-11T01:30:53;1.70;;;1.30;;
17079;SDS011;8655;57.106;-2.088;2022-08-11T01:36:49;1.40;;;1.30;;
17079;SDS011;8655;57.106;-2.088;2022-08-11T01:56:12;1.58;;;1.20;;
17079;SDS011;8655;57.106;-2.088;2022-08-11T01:59:17;1.40;;;1.30;;
17079;SDS011;8655;57.106;-2.088;2022-08-11T02:04:43;1.42;;;1.30;;
17079;SDS011;8655;57.106;-2.088;2022-08-11T02:10:06;2.88;;;1.40;;
17079;SDS011;8655;57.106;-2.088;2022-08-11T02:15:41;2.03;;;1.40;;
17079;SDS011;8655;57.106;-2.088;2022-08-11T02:18:25;1.52;;;1.40;;
17079;SDS011;8655;57.106;-2.088;2022-08-11T02:21:18;1.35;;;1.25;;
17079;SDS011;8655;57.106;-2.088;2022-08-11T02:24:12;1.48;;;1.20;;
17079;SDS011;8655;57.106;-2.088;2022-08-11T02:26:49;1.67;;;1.08;;
17079;SDS011;8655;57.106;-2.088;2022-08-11T02:29:34;1.45;;;1.30;;
17079;SDS011;8655;57.106;-2.088;2022-08-11T02:32:29;1.40;;;1.27;;
17079;SDS011;8655;57.106;-2.088;2022-08-11T02:35:21;1.30;;;1.20;;
17079;SDS011;8655;57.106;-2.088;2022-08-11T02:40:59;0.95;;;0.90;;
17079;SDS011;8655;57.106;-2.088;2022-08-11T02:44:19;1.45;;;1.13;;
17079;SDS011;8655;57.106;-2.088;2022-08-11T02:46:57;1.10;;;1.00;;
17079;SDS011;8655;57.106;-2.088;2022-08-11T02:55:30;2.20;;;1.40;;
17079;SDS011;8655;57.106;-2.088;2022-08-11T02:58:16;1.30;;;1.20;;
17079;SDS011;8655;57.106;-2.088;2022-08-11T03:01:05;1.70;;;1.40;;
17079;SDS011;8655;57.106;-2.088;2022-08-11T03:11:19;1.20;;;1.10;;
17079;SDS011;8655;57.106;-2.088;2022-08-11T03:28:41;0.93;;;0.90;;
17079;SDS011;8655;57.106;-2.088;2022-08-11T03:34:14;1.38;;;1.27;;
17079;SDS011;8655;57.106;-2.088;2022-08-11T03:36:58;1.27;;;1.17;;
17079;SDS011;8655;57.106;-2.088;2022-08-11T04:02:26;1.15;;;1.05;;
17079;SDS011;8655;57.106;-2.088;2022-08-11T04:31:17;1.25;;;1.15;;
17079;SDS011;8655;57.106;-2.088;2022-08-11T04:45:34;1.33;;;1.10;;
17079;SDS011;8655;57.106;-2.088;2022-08-11T04:48:42;1.23;;;0.90;;
17079;SDS011;8655;57.106;-2.088;2022-08-11T04:58:21;1.48;;;0.90;;
17079;SDS011;8655;57.106;-2.088;2022-08-11T05:01:17;1.10;;;0.98;;
17079;SDS011;8655;57.106;-2.088;2022-08-11T05:15:52;1.23;;;1.13;;
17079;SDS011;8655;57.106;-2.088;2022-08-11T05:19:00;0.82;;;0.82;;
17079;SDS011;8655;57.106;-2.088;2022-08-11T05:21:45;1.10;;;0.90;;
17079;SDS011;8655;57.106;-2.088;2022-08-11T05:24:40;1.20;;;1.10;;
17079;SDS011;8655;57.106;-2.088;2022-08-11T05:27:37;1.00;;;0.95;;
17079;SDS011;8655;57.106;-2.088;2022-08-11T05:30:45;1.15;;;0.98;;
17079;SDS011;8655;57.106;-2.088;2022-08-11T05:33:41;1.20;;;1.10;;
17079;SDS011;8655;57.106;-2.088;2022-08-11T05:36:39;1.10;;;0.90;;
17079;SDS011;8655;57.106;-2.088;2022-08-11T05:39:20;0.90;;;0.90;;
17079;SDS011;8655;57.106;-2.088;2022-08-11T05:42:07;1.23;;;1.13;;
17079;SDS011;8655;57.106;-2.088;2022-08-11T05:44:56;0.88;;;0.88;;
17079;SDS011;8655;57.106;-2.088;2022-08-11T05:47:49;1.05;;;1.02;;
17079;SDS011;8655;57.106;-2.088;2022-08-11T05:50:34;1.20;;;1.10;;
17079;SDS011;8655;57.106;-2.088;2022-08-11T05:53:19;0.80;;;0.80;;
17079;SDS011;8655;57.106;-2.088;2022-08-11T05:56:05;0.75;;;0.75;;
17079;SDS011;8655;57.106;-2.088;2022-08-11T05:58:43;0.80;;;0.80;;
17079;SDS011;8655;57.106;-2.088;2022-08-11T06:01:11;1.00;;;0.98;;
17079;SDS011;8655;57.106;-2.088;2022-08-11T06:03:44;0.85;;;0.85;;
17079;SDS011;8655;57.106;-2.088;2022-08-11T06:06:37;0.73;;;0.73;;
17079;SDS011;8655;57.106;-2.088;2022-08-11T06:09:04;0.85;;;0.85;;
17079;SDS011;8655;57.106;-2.088;2022-08-11T06:11:36;1.05;;;0.90;;
17079;SDS011;8655;57.106;-2.088;2022-08-11T06:14:04;0.80;;;0.80;;
17079;SDS011;8655;57.106;-2.088;2022-08-11T06:16:31;0.90;;;0.90;;
17079;SDS011;8655;57.106;-2.088;2022-08-11T06:18:58;1.25;;;0.95;;
17079;SDS011;8655;57.106;-2.088;2022-08-11T06:21:24;1.27;;;1.13;;
17079;SDS011;8655;57.106;-2.088;2022-08-11T06:23:53;1.02;;;0.98;;
17079;SDS011;8655;57.106;-2.088;2022-08-11T06:26:20;1.15;;;1.00;;
17079;SDS011;8655;57.106;-2.088;2022-08-11T06:28:46;0.90;;;0.90;;
17079;SDS011;8655;57.106;-2.088;2022-08-11T06:31:14;0.90;;;0.90;;
17079;SDS011;8655;57.106;-2.088;2022-08-11T06:36:22;0.77;;;0.77;;
17079;SDS011;8655;57.106;-2.088;2022-08-11T06:41:44;0.75;;;0.75;;
17079;SDS011;8655;57.106;-2.088;2022-08-11T06:44:31;0.98;;;0.90;;
17079;SDS011;8655;57.106;-2.088;2022-08-11T06:47:07;0.93;;;0.93;;
17079;SDS011;8655;57.106;-2.088;2022-08-11T06:49:45;1.35;;;0.88;;
17079;SDS011;8655;57.106;-2.088;2022-08-11T06:52:34;0.95;;;0.95;;
17079;SDS011;8655;57.106;-2.088;2022-08-11T06:55:09;0.73;;;0.73;;
17079;SDS011;8655;57.106;-2.088;2022-08-11T06:57:39;0.80;;;0.80;;
17079;SDS011;8655;57.106;-2.088;2022-08-11T07:00:27;0.88;;;0.80;;
17079;SDS011;8655;57.106;-2.088;2022-08-11T07:05:46;0.75;;;0.75;;
17079;SDS011;8655;57.106;-2.088;2022-08-11T07:14:31;1.27;;;0.90;;
17079;SDS011;8655;57.106;-2.088;2022-08-11T07:17:18;0.90;;;0.90;;
17079;SDS011;8655;57.106;-2.088;2022-08-11T07:19:49;0.93;;;0.90;;
17079;SDS011;8655;57.106;-2.088;2022-08-11T07:22:39;0.82;;;0.82;;
17079;SDS011;8655;57.106;-2.088;2022-08-11T07:25:25;0.68;;;0.68;;
17079;SDS011;8655;57.106;-2.088;2022-08-11T07:28:17;0.95;;;0.82;;
17079;SDS011;8655;57.106;-2.088;2022-08-11T07:31:09;0.80;;;0.80;;
17079;SDS011;8655;57.106;-2.088;2022-08-11T07:33:47;0.77;;;0.77;;
17079;SDS011;8655;57.106;-2.088;2022-08-11T07:36:16;0.73;;;0.73;;
17079;SDS011;8655;57.106;-2.088;2022-08-11T07:38:44;1.80;;;0.80;;
17079;SDS011;8655;57.106;-2.088;2022-08-11T07:41:16;1.00;;;0.90;;
17079;SDS011;8655;57.106;-2.088;2022-08-11T07:43:45;0.90;;;0.90;;
17079;SDS011;8655;57.106;-2.088;2022-08-11T07:46:15;0.90;;;0.90;;
17079;SDS011;8655;57.106;-2.088;2022-08-11T07:49:02;1.17;;;1.08;;
17079;SDS011;8655;57.106;-2.088;2022-08-11T07:51:47;0.90;;;0.90;;
17079;SDS011;8655;57.106;-2.088;2022-08-11T07:54:32;0.88;;;0.88;;
17079;SDS011;8655;57.106;-2.088;2022-08-11T07:56:59;0.75;;;0.75;;
17079;SDS011;8655;57.106;-2.088;2022-08-11T07:59:45;1.05;;;0.95;;
17079;SDS011;8655;57.106;-2.088;2022-08-11T08:02:30;0.70;;;0.70;;
17079;SDS011;8655;57.106;-2.088;2022-08-11T08:05:15;0.90;;;0.90;;
17079;SDS011;8655;57.106;-2.088;2022-08-11T08:08:01;0.70;;;0.70;;
17079;SDS011;8655;57.106;-2.088;2022-08-11T08:10:46;0.93;;;0.70;;
17079;SDS011;8655;57.106;-2.088;2022-08-11T08:13:31;1.30;;;0.98;;
17079;SDS011;8655;57.106;-2.088;2022-08-11T08:16:17;0.70;;;0.70;;
17079;SDS011;8655;57.106;-2.088;2022-08-11T08:19:03;1.00;;;0.95;;
17079;SDS011;8655;57.106;-2.088;2022-08-11T08:21:29;2.40;;;0.82;;
17079;SDS011;8655;57.106;-2.088;2022-08-11T08:23:56;0.70;;;0.70;;
17079;SDS011;8655;57.106;-2.088;2022-08-11T08:26:23;1.00;;;0.90;;
17079;SDS011;8655;57.106;-2.088;2022-08-11T08:29:08;0.98;;;0.90;;
17079;SDS011;8655;57.106;-2.088;2022-08-11T08:31:52;0.93;;;0.90;;
17079;SDS011;8655;57.106;-2.088;2022-08-11T08:34:20;0.85;;;0.85;;
17079;SDS011;8655;57.106;-2.088;2022-08-11T08:36:48;1.27;;;0.70;;
17079;SDS011;8655;57.106;-2.088;2022-08-11T08:39:18;2.17;;;0.90;;
17079;SDS011;8655;57.106;-2.088;2022-08-11T08:41:46;1.00;;;0.85;;
17079;SDS011;8655;57.106;-2.088;2022-08-11T08:44:16;1.10;;;0.90;;
17079;SDS011;8655;57.106;-2.088;2022-08-11T08:46:45;1.77;;;0.90;;
17079;SDS011;8655;57.106;-2.088;2022-08-11T08:49:15;0.95;;;0.80;;
17079;SDS011;8655;57.106;-2.088;2022-08-11T08:51:48;1.95;;;0.93;;
17079;SDS011;8655;57.106;-2.088;2022-08-11T08:54:19;0.93;;;0.90;;
17079;SDS011;8655;57.106;-2.088;2022-08-11T08:56:51;1.95;;;0.80;;
17079;SDS011;8655;57.106;-2.088;2022-08-11T08:59:21;1.00;;;0.90;;
17079;SDS011;8655;57.106;-2.088;2022-08-11T09:01:50;0.82;;;0.82;;
17079;SDS011;8655;57.106;-2.088;2022-08-11T09:04:23;0.80;;;0.80;;
17079;SDS011;8655;57.106;-2.088;2022-08-11T09:06:50;0.90;;;0.90;;
17079;SDS011;8655;57.106;-2.088;2022-08-11T09:09:19;1.85;;;0.82;;
17079;SDS011;8655;57.106;-2.088;2022-08-11T09:11:46;1.92;;;0.70;;
17079;SDS011;8655;57.106;-2.088;2022-08-11T09:14:22;0.98;;;0.82;;
17079;SDS011;8655;57.106;-2.088;2022-08-11T09:17:10;0.77;;;0.77;;
17079;SDS011;8655;57.106;-2.088;2022-08-11T09:19:36;1.00;;;0.90;;
17079;SDS011;8655;57.106;-2.088;2022-08-11T09:22:02;1.13;;;0.70;;
17079;SDS011;8655;57.106;-2.088;2022-08-11T09:24:48;1.25;;;0.70;;
17079;SDS011;8655;57.106;-2.088;2022-08-11T09:27:34;1.30;;;0.98;;
17079;SDS011;8655;57.106;-2.088;2022-08-11T09:30:03;2.00;;;1.00;;
17079;SDS011;8655;57.106;-2.088;2022-08-11T09:32:30;1.23;;;0.60;;
17079;SDS011;8655;57.106;-2.088;2022-08-11T09:34:58;1.10;;;0.75;;
17079;SDS011;8655;57.106;-2.088;2022-08-11T09:37:26;0.93;;;0.90;;
17079;SDS011;8655;57.106;-2.088;2022-08-11T09:40:13;1.45;;;1.00;;
17079;SDS011;8655;57.106;-2.088;2022-08-11T09:42:58;1.42;;;0.85;;
17079;SDS011;8655;57.106;-2.088;2022-08-11T09:45:46;1.27;;;0.80;;
17079;SDS011;8655;57.106;-2.088;2022-08-11T09:48:17;0.80;;;0.80;;
17079;SDS011;8655;57.106;-2.088;2022-08-11T09:50:45;1.10;;;1.00;;
17079;SDS011;8655;57.106;-2.088;2022-08-11T09:53:16;1.80;;;0.90;;
17079;SDS011;8655;57.106;-2.088;2022-08-11T09:55:44;1.45;;;0.90;;
17079;SDS011;8655;57.106;-2.088;2022-08-11T09:58:11;0.80;;;0.80;;
17079;SDS011;8655;57.106;-2.088;2022-08-11T10:00:38;1.25;;;0.95;;
17079;SDS011;8655;57.106;-2.088;2022-08-11T10:03:21;1.25;;;0.90;;
17079;SDS011;8655;57.106;-2.088;2022-08-11T10:05:55;0.95;;;0.88;;
17079;SDS011;8655;57.106;-2.088;2022-08-11T10:08:42;2.50;;;0.80;;
17079;SDS011;8655;57.106;-2.088;2022-08-11T10:11:09;1.70;;;0.98;;
17079;SDS011;8655;57.106;-2.088;2022-08-11T10:13:40;0.90;;;0.82;;
17079;SDS011;8655;57.106;-2.088;2022-08-11T10:16:27;1.13;;;0.85;;
17079;SDS011;8655;57.106;-2.088;2022-08-11T10:18:54;1.30;;;1.00;;
17079;SDS011;8655;57.106;-2.088;2022-08-11T10:23:52;2.38;;;1.00;;
17079;SDS011;8655;57.106;-2.088;2022-08-11T10:26:38;1.20;;;0.80;;
17079;SDS011;8655;57.106;-2.088;2022-08-11T10:29:23;1.60;;;1.00;;
17079;SDS011;8655;57.106;-2.088;2022-08-11T10:32:09;0.90;;;0.90;;
17079;SDS011;8655;57.106;-2.088;2022-08-11T10:34:54;7.63;;;1.33;;
17079;SDS011;8655;57.106;-2.088;2022-08-11T10:37:22;2.42;;;1.10;;
17079;SDS011;8655;57.106;-2.088;2022-08-11T10:39:49;1.90;;;1.00;;
17079;SDS011;8655;57.106;-2.088;2022-08-11T10:42:16;1.67;;;0.90;;
17079;SDS011;8655;57.106;-2.088;2022-08-11T10:45:02;2.30;;;1.27;;
17079;SDS011;8655;57.106;-2.088;2022-08-11T10:47:49;1.67;;;0.93;;
17079;SDS011;8655;57.106;-2.088;2022-08-11T10:50:17;1.05;;;0.93;;
17079;SDS011;8655;57.106;-2.088;2022-08-11T10:53:02;1.83;;;1.10;;
17079;SDS011;8655;57.106;-2.088;2022-08-11T10:55:47;1.65;;;1.10;;
17079;SDS011;8655;57.106;-2.088;2022-08-11T10:58:31;2.03;;;0.85;;
17079;SDS011;8655;57.106;-2.088;2022-08-11T11:01:15;1.70;;;0.95;;
17079;SDS011;8655;57.106;-2.088;2022-08-11T11:03:52;1.73;;;0.98;;
17079;SDS011;8655;57.106;-2.088;2022-08-11T11:11:36;2.17;;;1.08;;
17079;SDS011;8655;57.106;-2.088;2022-08-11T11:14:24;2.03;;;1.17;;
17079;SDS011;8655;57.106;-2.088;2022-08-11T11:17:12;1.55;;;1.10;;
17079;SDS011;8655;57.106;-2.088;2022-08-11T11:19:39;1.52;;;1.17;;
17079;SDS011;8655;57.106;-2.088;2022-08-11T11:22:06;2.22;;;0.90;;
17079;SDS011;8655;57.106;-2.088;2022-08-11T11:30:18;1.10;;;1.00;;
17079;SDS011;8655;57.106;-2.088;2022-08-11T11:32:58;2.80;;;1.02;;
17079;SDS011;8655;57.106;-2.088;2022-08-11T11:38:29;1.75;;;1.20;;
17079;SDS011;8655;57.106;-2.088;2022-08-11T11:40:55;2.40;;;1.25;;
17079;SDS011;8655;57.106;-2.088;2022-08-11T11:43:39;1.55;;;1.00;;
17079;SDS011;8655;57.106;-2.088;2022-08-11T11:46:06;1.08;;;0.90;;
17079;SDS011;8655;57.106;-2.088;2022-08-11T11:48:33;1.77;;;1.00;;
17079;SDS011;8655;57.106;-2.088;2022-08-11T11:51:00;3.53;;;1.20;;
17079;SDS011;8655;57.106;-2.088;2022-08-11T11:53:27;1.20;;;1.08;;
17079;SDS011;8655;57.106;-2.088;2022-08-11T11:55:53;2.25;;;1.00;;
17079;SDS011;8655;57.106;-2.088;2022-08-11T11:58:20;2.03;;;1.10;;
17079;SDS011;8655;57.106;-2.088;2022-08-11T12:01:04;2.10;;;1.15;;
17079;SDS011;8655;57.106;-2.088;2022-08-11T12:03:40;3.45;;;1.10;;
17079;SDS011;8655;57.106;-2.088;2022-08-11T12:06:11;1.80;;;1.13;;
17079;SDS011;8655;57.106;-2.088;2022-08-11T12:08:38;2.60;;;1.13;;
17079;SDS011;8655;57.106;-2.088;2022-08-11T12:11:05;1.73;;;1.25;;
17079;SDS011;8655;57.106;-2.088;2022-08-11T12:13:56;1.15;;;0.90;;
17079;SDS011;8655;57.106;-2.088;2022-08-11T12:16:24;1.30;;;1.00;;
17079;SDS011;8655;57.106;-2.088;2022-08-11T12:18:52;1.50;;;1.10;;
17079;SDS011;8655;57.106;-2.088;2022-08-11T12:21:20;5.68;;;1.20;;
17079;SDS011;8655;57.106;-2.088;2022-08-11T12:23:48;1.23;;;1.02;;
17079;SDS011;8655;57.106;-2.088;2022-08-11T12:26:34;1.17;;;1.00;;
17079;SDS011;8655;57.106;-2.088;2022-08-11T12:29:19;1.75;;;1.30;;
17079;SDS011;8655;57.106;-2.088;2022-08-11T12:31:51;1.83;;;1.20;;
17079;SDS011;8655;57.106;-2.088;2022-08-11T12:34:19;2.88;;;1.20;;
17079;SDS011;8655;57.106;-2.088;2022-08-11T12:36:47;1.20;;;1.10;;
17079;SDS011;8655;57.106;-2.088;2022-08-11T12:39:18;1.90;;;1.00;;
17079;SDS011;8655;57.106;-2.088;2022-08-11T12:42:07;1.38;;;1.20;;
17079;SDS011;8655;57.106;-2.088;2022-08-11T12:44:56;2.65;;;1.27;;
17079;SDS011;8655;57.106;-2.088;2022-08-11T12:47:46;1.70;;;1.30;;
17079;SDS011;8655;57.106;-2.088;2022-08-11T12:50:33;2.50;;;1.23;;
17079;SDS011;8655;57.106;-2.088;2022-08-11T12:53:19;1.33;;;1.15;;
17079;SDS011;8655;57.106;-2.088;2022-08-11T12:55:50;2.35;;;1.23;;
17079;SDS011;8655;57.106;-2.088;2022-08-11T12:58:36;1.77;;;1.30;;
17079;SDS011;8655;57.106;-2.088;2022-08-11T13:01:05;1.30;;;1.20;;
17079;SDS011;8655;57.106;-2.088;2022-08-11T13:03:50;2.08;;;1.33;;
17079;SDS011;8655;57.106;-2.088;2022-08-11T13:06:34;1.60;;;1.20;;
17079;SDS011;8655;57.106;-2.088;2022-08-11T13:09:01;1.20;;;1.10;;
17079;SDS011;8655;57.106;-2.088;2022-08-11T13:11:27;2.95;;;1.35;;
17079;SDS011;8655;57.106;-2.088;2022-08-11T13:14:14;2.10;;;1.17;;
17079;SDS011;8655;57.106;-2.088;2022-08-11T13:16:41;1.67;;;1.15;;
17079;SDS011;8655;57.106;-2.088;2022-08-11T13:19:27;3.28;;;1.30;;
17079;SDS011;8655;57.106;-2.088;2022-08-11T13:21:54;1.55;;;1.20;;
17079;SDS011;8655;57.106;-2.088;2022-08-11T13:24:21;2.75;;;1.50;;
17079;SDS011;8655;57.106;-2.088;2022-08-11T13:26:48;2.45;;;1.30;;
17079;SDS011;8655;57.106;-2.088;2022-08-11T13:29:19;2.75;;;1.55;;
17079;SDS011;8655;57.106;-2.088;2022-08-11T13:31:47;2.45;;;1.33;;
17079;SDS011;8655;57.106;-2.088;2022-08-11T13:34:14;2.20;;;1.40;;
17079;SDS011;8655;57.106;-2.088;2022-08-11T13:36:41;1.73;;;1.35;;
17079;SDS011;8655;57.106;-2.088;2022-08-11T13:39:08;1.77;;;1.40;;
17079;SDS011;8655;57.106;-2.088;2022-08-11T13:41:35;1.65;;;1.30;;
17079;SDS011;8655;57.106;-2.088;2022-08-11T13:44:06;3.67;;;1.50;;
17079;SDS011;8655;57.106;-2.088;2022-08-11T13:46:33;4.45;;;1.75;;
17079;SDS011;8655;57.106;-2.088;2022-08-11T13:49:00;2.55;;;1.30;;
17079;SDS011;8655;57.106;-2.088;2022-08-11T13:51:27;2.25;;;1.38;;
17079;SDS011;8655;57.106;-2.088;2022-08-11T13:53:58;2.00;;;1.45;;
17079;SDS011;8655;57.106;-2.088;2022-08-11T13:56:30;3.08;;;1.40;;
17079;SDS011;8655;57.106;-2.088;2022-08-11T13:58:57;2.45;;;1.33;;
17079;SDS011;8655;57.106;-2.088;2022-08-11T14:01:25;2.70;;;1.50;;
17079;SDS011;8655;57.106;-2.088;2022-08-11T14:03:54;1.60;;;1.42;;
17079;SDS011;8655;57.106;-2.088;2022-08-11T14:06:27;3.42;;;1.52;;
17079;SDS011;8655;57.106;-2.088;2022-08-11T14:08:53;1.73;;;1.33;;
17079;SDS011;8655;57.106;-2.088;2022-08-11T14:11:20;2.13;;;1.50;;
17079;SDS011;8655;57.106;-2.088;2022-08-11T14:14:05;2.80;;;1.65;;
17079;SDS011;8655;57.106;-2.088;2022-08-11T14:16:39;2.67;;;1.58;;
17079;SDS011;8655;57.106;-2.088;2022-08-11T14:19:08;1.88;;;1.38;;
17079;SDS011;8655;57.106;-2.088;2022-08-11T14:21:39;3.03;;;1.40;;
17079;SDS011;8655;57.106;-2.088;2022-08-11T14:24:25;2.17;;;1.35;;
17079;SDS011;8655;57.106;-2.088;2022-08-11T14:26:53;3.63;;;1.55;;
17079;SDS011;8655;57.106;-2.088;2022-08-11T14:29:20;3.58;;;1.67;;
17079;SDS011;8655;57.106;-2.088;2022-08-11T14:31:57;2.42;;;1.77;;
17079;SDS011;8655;57.106;-2.088;2022-08-11T14:34:27;2.33;;;1.23;;
17079;SDS011;8655;57.106;-2.088;2022-08-11T14:37:27;3.90;;;1.67;;
17079;SDS011;8655;57.106;-2.088;2022-08-11T14:39:49;1.75;;;1.48;;
17079;SDS011;8655;57.106;-2.088;2022-08-11T14:42:20;2.00;;;1.40;;
17079;SDS011;8655;57.106;-2.088;2022-08-11T14:45:08;1.60;;;1.30;;
17079;SDS011;8655;57.106;-2.088;2022-08-11T14:47:58;3.28;;;1.65;;
17079;SDS011;8655;57.106;-2.088;2022-08-11T14:50:26;2.92;;;1.52;;
17079;SDS011;8655;57.106;-2.088;2022-08-11T14:53:00;3.22;;;1.52;;
17079;SDS011;8655;57.106;-2.088;2022-08-11T14:55:29;2.45;;;1.50;;
17079;SDS011;8655;57.106;-2.088;2022-08-11T14:58:19;3.05;;;1.65;;
17079;SDS011;8655;57.106;-2.088;2022-08-11T15:00:49;2.63;;;1.80;;
17079;SDS011;8655;57.106;-2.088;2022-08-11T15:03:22;3.20;;;1.60;;
17079;SDS011;8655;57.106;-2.088;2022-08-11T15:05:50;1.50;;;1.40;;
17079;SDS011;8655;57.106;-2.088;2022-08-11T15:08:18;2.05;;;1.48;;
17079;SDS011;8655;57.106;-2.088;2022-08-11T15:10:45;3.95;;;1.30;;
17079;SDS011;8655;57.106;-2.088;2022-08-11T15:13:14;2.78;;;1.67;;
17079;SDS011;8655;57.106;-2.088;2022-08-11T15:15:42;2.70;;;1.48;;
17079;SDS011;8655;57.106;-2.088;2022-08-11T15:18:27;2.75;;;1.67;;
17079;SDS011;8655;57.106;-2.088;2022-08-11T15:20:53;1.42;;;1.33;;
17079;SDS011;8655;57.106;-2.088;2022-08-11T15:23:39;2.40;;;1.50;;
17079;SDS011;8655;57.106;-2.088;2022-08-11T15:26:31;1.70;;;1.45;;
17079;SDS011;8655;57.106;-2.088;2022-08-11T15:29:21;1.67;;;1.33;;
17079;SDS011;8655;57.106;-2.088;2022-08-11T15:32:08;1.90;;;1.70;;
17079;SDS011;8655;57.106;-2.088;2022-08-11T15:34:56;1.65;;;1.38;;
17079;SDS011;8655;57.106;-2.088;2022-08-11T15:37:43;1.83;;;1.63;;
17079;SDS011;8655;57.106;-2.088;2022-08-11T15:40:12;2.28;;;1.50;;
17079;SDS011;8655;57.106;-2.088;2022-08-11T15:43:09;3.97;;;1.52;;
17079;SDS011;8655;57.106;-2.088;2022-08-11T15:46:00;2.25;;;1.40;;
17079;SDS011;8655;57.106;-2.088;2022-08-11T15:51:01;1.52;;;1.38;;
17079;SDS011;8655;57.106;-2.088;2022-08-11T15:53:56;4.40;;;1.60;;
17079;SDS011;8655;57.106;-2.088;2022-08-11T15:56:26;2.30;;;1.58;;
17079;SDS011;8655;57.106;-2.088;2022-08-11T15:58:56;2.47;;;1.67;;
17079;SDS011;8655;57.106;-2.088;2022-08-11T16:01:43;2.30;;;1.45;;
17079;SDS011;8655;57.106;-2.088;2022-08-11T16:04:30;1.92;;;1.40;;
17079;SDS011;8655;57.106;-2.088;2022-08-11T16:12:06;1.70;;;1.60;;
17079;SDS011;8655;57.106;-2.088;2022-08-11T16:14:35;5.15;;;1.60;;
17079;SDS011;8655;57.106;-2.088;2022-08-11T16:17:23;1.60;;;1.33;;
17079;SDS011;8655;57.106;-2.088;2022-08-11T16:19:50;1.80;;;1.27;;
17079;SDS011;8655;57.106;-2.088;2022-08-11T16:22:22;3.13;;;1.60;;
17079;SDS011;8655;57.106;-2.088;2022-08-11T16:25:00;2.47;;;1.40;;
17079;SDS011;8655;57.106;-2.088;2022-08-11T16:27:32;1.45;;;1.30;;
17079;SDS011;8655;57.106;-2.088;2022-08-11T16:30:02;2.65;;;1.50;;
17079;SDS011;8655;57.106;-2.088;2022-08-11T16:32:30;2.17;;;1.63;;
17079;SDS011;8655;57.106;-2.088;2022-08-11T16:35:01;2.25;;;1.70;;
17079;SDS011;8655;57.106;-2.088;2022-08-11T16:37:51;3.42;;;1.30;;
17079;SDS011;8655;57.106;-2.088;2022-08-11T16:40:37;3.25;;;1.40;;
17079;SDS011;8655;57.106;-2.088;2022-08-11T16:43:07;2.47;;;1.55;;
17079;SDS011;8655;57.106;-2.088;2022-08-11T16:45:55;2.90;;;1.55;;
17079;SDS011;8655;57.106;-2.088;2022-08-11T16:48:41;1.88;;;1.42;;
17079;SDS011;8655;57.106;-2.088;2022-08-11T16:51:10;2.10;;;1.50;;
17079;SDS011;8655;57.106;-2.088;2022-08-11T16:53:37;1.63;;;1.48;;
17079;SDS011;8655;57.106;-2.088;2022-08-11T16:56:04;1.92;;;1.50;;
17079;SDS011;8655;57.106;-2.088;2022-08-11T16:58:33;3.25;;;1.70;;
17079;SDS011;8655;57.106;-2.088;2022-08-11T17:01:20;2.17;;;1.50;;
17079;SDS011;8655;57.106;-2.088;2022-08-11T17:03:50;3.03;;;1.58;;
17079;SDS011;8655;57.106;-2.088;2022-08-11T17:06:49;2.08;;;1.60;;
17079;SDS011;8655;57.106;-2.088;2022-08-11T17:09:35;2.75;;;1.50;;
17079;SDS011;8655;57.106;-2.088;2022-08-11T17:12:23;1.98;;;1.50;;
17079;SDS011;8655;57.106;-2.088;2022-08-11T17:15:16;2.22;;;1.50;;
17079;SDS011;8655;57.106;-2.088;2022-08-11T17:18:02;2.22;;;1.50;;
17079;SDS011;8655;57.106;-2.088;2022-08-11T17:20:30;2.30;;;1.40;;
17079;SDS011;8655;57.106;-2.088;2022-08-11T17:22:57;2.30;;;1.58;;
17079;SDS011;8655;57.106;-2.088;2022-08-11T17:25:44;3.17;;;1.60;;
17079;SDS011;8655;57.106;-2.088;2022-08-11T17:28:12;3.20;;;1.55;;
17079;SDS011;8655;57.106;-2.088;2022-08-11T17:30:40;1.73;;;1.40;;
17079;SDS011;8655;57.106;-2.088;2022-08-11T17:33:25;2.20;;;1.50;;
17079;SDS011;8655;57.106;-2.088;2022-08-11T17:36:12;2.72;;;1.40;;
17079;SDS011;8655;57.106;-2.088;2022-08-11T17:38:38;3.05;;;1.50;;
17079;SDS011;8655;57.106;-2.088;2022-08-11T17:41:06;2.33;;;1.40;;
17079;SDS011;8655;57.106;-2.088;2022-08-11T17:43:51;2.42;;;1.60;;
17079;SDS011;8655;57.106;-2.088;2022-08-11T17:46:37;1.52;;;1.40;;
17079;SDS011;8655;57.106;-2.088;2022-08-11T17:49:23;2.30;;;1.40;;
17079;SDS011;8655;57.106;-2.088;2022-08-11T17:51:52;2.22;;;1.42;;
17079;SDS011;8655;57.106;-2.088;2022-08-11T17:54:37;2.38;;;1.55;;
17079;SDS011;8655;57.106;-2.088;2022-08-11T17:57:23;1.92;;;1.40;;
17079;SDS011;8655;57.106;-2.088;2022-08-11T18:00:09;1.90;;;1.50;;
17079;SDS011;8655;57.106;-2.088;2022-08-11T18:02:37;1.55;;;1.40;;
17079;SDS011;8655;57.106;-2.088;2022-08-11T18:05:38;2.08;;;1.40;;
17079;SDS011;8655;57.106;-2.088;2022-08-11T18:08:07;2.13;;;1.60;;
17079;SDS011;8655;57.106;-2.088;2022-08-11T18:10:55;2.47;;;1.30;;
17079;SDS011;8655;57.106;-2.088;2022-08-11T18:13:41;2.03;;;1.60;;
17079;SDS011;8655;57.106;-2.088;2022-08-11T18:16:27;1.92;;;1.35;;
17079;SDS011;8655;57.106;-2.088;2022-08-11T18:19:11;1.75;;;1.40;;
17079;SDS011;8655;57.106;-2.088;2022-08-11T18:22:04;1.45;;;1.35;;
17079;SDS011;8655;57.106;-2.088;2022-08-11T18:24:53;1.23;;;1.10;;
17079;SDS011;8655;57.106;-2.088;2022-08-11T18:27:44;2.08;;;1.55;;
17079;SDS011;8655;57.106;-2.088;2022-08-11T18:30:35;2.58;;;1.30;;
17079;SDS011;8655;57.106;-2.088;2022-08-11T18:33:21;1.65;;;1.30;;
17079;SDS011;8655;57.106;-2.088;2022-08-11T18:36:10;2.35;;;1.60;;
17079;SDS011;8655;57.106;-2.088;2022-08-11T18:38:57;1.75;;;1.30;;
17079;SDS011;8655;57.106;-2.088;2022-08-11T18:41:44;1.95;;;1.40;;
17079;SDS011;8655;57.106;-2.088;2022-08-11T18:44:30;1.38;;;1.27;;
17079;SDS011;8655;57.106;-2.088;2022-08-11T18:47:17;1.58;;;1.30;;
17079;SDS011;8655;57.106;-2.088;2022-08-11T18:50:04;1.33;;;1.17;;
17079;SDS011;8655;57.106;-2.088;2022-08-11T18:52:52;1.63;;;1.35;;
17079;SDS011;8655;57.106;-2.088;2022-08-11T18:55:38;2.15;;;1.38;;
17079;SDS011;8655;57.106;-2.088;2022-08-11T18:58:26;1.30;;;1.08;;
17079;SDS011;8655;57.106;-2.088;2022-08-11T19:01:12;1.58;;;1.40;;
17079;SDS011;8655;57.106;-2.088;2022-08-11T19:03:59;1.60;;;1.40;;
17079;SDS011;8655;57.106;-2.088;2022-08-11T19:06:46;1.50;;;1.30;;
17079;SDS011;8655;57.106;-2.088;2022-08-11T19:09:34;1.42;;;1.30;;
17079;SDS011;8655;57.106;-2.088;2022-08-11T19:12:22;2.15;;;1.40;;
17079;SDS011;8655;57.106;-2.088;2022-08-11T19:15:08;1.58;;;1.35;;
17079;SDS011;8655;57.106;-2.088;2022-08-11T19:17:54;1.50;;;1.40;;
17079;SDS011;8655;57.106;-2.088;2022-08-11T19:20:41;1.48;;;1.20;;
17079;SDS011;8655;57.106;-2.088;2022-08-11T19:23:32;2.17;;;1.55;;
17079;SDS011;8655;57.106;-2.088;2022-08-11T19:26:20;1.85;;;1.45;;
17079;SDS011;8655;57.106;-2.088;2022-08-11T19:29:06;1.73;;;1.30;;
17079;SDS011;8655;57.106;-2.088;2022-08-11T19:31:51;1.45;;;1.15;;